Central Virginia Flyers


Central Virginia Flyers is a 10 member flying club based in Richmond, VA at Hanover County Airport (KOFP). We own N787AT, a 1977 Cessna 172 with 180hp conversion. If you are interested in membership, please contact Brenton at [email protected]


Aviation Digital Data Service (ADDS)

Output produced by METARs form (1929 UTC 22 January 2019)
found at http://aviationweather.gov/metar/data/
 
KOFP 221854Z AUTO 00000KT 10SM CLR 01/M18 A3067 RMK AO2 SLP389 T00111178
KRIC 221854Z 00000KT 10SM SCT300 01/M17 A3066 RMK AO2 SLP389 T00061172
KRIC 221720Z 2218/2318 VRB03KT P6SM FEW150 
     FM230200 17005KT P6SM SCT250 
     FM230900 19006KT P6SM BKN120 
     FM231200 19006KT P6SM BKN040 
     FM231500 19008KT P6SM BKN030